Time,TemperatureF,DewpointF,PressureIn,WindDirection,WindDirectionDegrees,WindSpeedMPH,WindSpeedGustMPH,Humidity,HourlyPrecipIn,Conditions,Clouds,dailyrainin,SoftwareType,DateUTC
2013-06-29 00:51:00,71.0,70.0,-100.00,SSE,155,2.0,7.0,97,0.00,,,-99.99,,2013-06-29 04:51:00,
2013-06-29 01:01:00,71.0,70.0,-100.00,SE,140,2.0,5.0,97,0.00,,,-99.99,,2013-06-29 05:01:00,
2013-06-29 01:21:00,71.0,70.0,-100.00,SE,125,1.0,7.0,96,0.00,,,-99.99,,2013-06-29 05:21:00,
2013-06-29 03:12:00,70.0,69.0,-100.00,SE,140,1.0,3.0,96,0.00,,,-99.99,,2013-06-29 07:12:00,
2013-06-29 03:22:00,71.0,69.0,-100.00,SSW,195,0.0,3.0,96,0.00,,,-99.99,,2013-06-29 07:22:00,
2013-06-29 03:33:00,70.0,69.0,-100.00,South,175,1.0,4.0,96,0.00,,,-99.99,,2013-06-29 07:33:00,
2013-06-29 03:53:00,70.0,69.0,-100.00,SE,130,1.0,4.0,96,0.00,,,-99.99,,2013-06-29 07:53:00,
2013-06-29 04:01:00,70.0,69.0,-100.00,NNE,15,0.0,3.0,96,0.00,,,-99.99,,2013-06-29 08:01:00,
2013-06-29 04:12:00,70.0,69.0,-100.00,SSE,150,1.0,2.0,96,0.00,,,-99.99,,2013-06-29 08:12:00,
2013-06-29 04:22:00,70.0,69.0,-100.00,SW,220,1.0,4.0,96,0.00,,,-99.99,,2013-06-29 08:22:00,
2013-06-29 04:33:00,70.0,69.0,-100.00,ESE,120,0.0,1.0,97,0.00,,,-99.99,,2013-06-29 08:33:00,
2013-06-29 06:22:00,71.0,70.0,-100.00,South,190,0.0,1.0,98,0.00,,,-99.99,,2013-06-29 10:22:00,
2013-06-29 06:33:00,71.0,70.0,-100.00,NW,310,0.0,2.0,98,0.00,,,-99.99,,2013-06-29 10:33:00,
2013-06-29 06:53:00,71.0,71.0,-100.00,SSW,205,0.0,1.0,98,0.00,,,-99.99,,2013-06-29 10:53:00,
2013-06-29 07:02:00,71.0,71.0,-100.00,WNW,295,0.0,4.0,98,0.00,,,-99.99,,2013-06-29 11:02:00,
2013-06-29 09:02:00,75.0,70.0,-100.00,WSW,240,3.0,7.0,85,0.00,,,-99.99,,2013-06-29 13:02:00,
2013-06-29 09:11:00,75.0,71.0,-100.00,West,260,1.0,7.0,85,0.00,,,-99.99,,2013-06-29 13:11:00,
2013-06-29 10:02:00,76.0,70.0,-100.00,SW,225,2.0,4.0,82,0.00,,,-99.99,,2013-06-29 14:02:00,
2013-06-29 10:12:00,76.0,71.0,-100.00,West,270,1.0,5.0,81,0.00,,,-99.99,,2013-06-29 14:12:00,
2013-06-29 10:23:00,77.0,71.0,-100.00,WSW,250,1.0,5.0,81,0.00,,,-99.99,,2013-06-29 14:23:00,
2013-06-29 10:34:00,77.0,71.0,-100.00,South,170,1.0,4.0,81,0.00,,,-99.99,,2013-06-29 14:34:00,
2013-06-29 10:44:00,76.0,71.0,-100.00,West,270,1.0,6.0,82,0.00,,,-99.99,,2013-06-29 14:44:00,
2013-06-29 11:22:00,76.0,71.0,-100.00,SW,215,1.0,4.0,83,0.00,,,-99.99,,2013-06-29 15:22:00,
2013-06-29 11:53:00,77.0,72.0,-100.00,SW,225,1.0,4.0,84,0.00,,,-99.99,,2013-06-29 15:53:00,
2013-06-29 12:02:00,77.0,71.0,-100.00,SW,220,2.0,9.0,81,0.00,,,-99.99,,2013-06-29 16:02:00,
2013-06-29 12:12:00,77.0,71.0,-100.00,SW,235,2.0,7.0,81,0.00,,,-99.99,,2013-06-29 16:12:00,
2013-06-29 13:12:00,80.0,71.0,-100.00,SSW,205,2.0,8.0,75,0.00,,,-99.99,,2013-06-29 17:12:00,
2013-06-29 14:34:00,82.0,69.0,-100.00,West,260,1.0,11.0,65,0.00,,,-99.99,,2013-06-29 18:34:00,
2013-06-29 14:53:00,84.0,71.0,-100.00,SW,230,3.0,9.0,65,0.00,,,-99.99,,2013-06-29 18:53:00,
2013-06-29 15:01:00,83.0,70.0,-100.00,SW,230,4.0,14.0,64,0.00,,,-99.99,,2013-06-29 19:01:00,
2013-06-29 15:22:00,84.0,69.0,-100.00,SSE,160,2.0,9.0,61,0.00,,,-99.99,,2013-06-29 19:22:00,
2013-06-29 17:22:00,84.0,69.0,-100.00,SE,145,2.0,12.0,60,0.00,,,-99.99,,2013-06-29 21:22:00,
2013-06-29 17:52:00,83.0,67.0,-100.00,SSE,150,2.0,8.0,58,0.00,,,-99.99,,2013-06-29 21:52:00,
2013-06-29 20:02:00,77.0,68.0,-100.00,SW,225,1.0,7.0,72,0.00,,,-99.99,,2013-06-30 00:02:00,
2013-06-29 20:22:00,76.0,67.0,-100.00,SSW,200,1.0,7.0,74,0.00,,,-99.99,,2013-06-30 00:22:00,
2013-06-29 21:22:00,74.0,67.0,-100.00,WSW,240,1.0,5.0,77,0.00,,,-99.99,,2013-06-30 01:22:00,
2013-06-29 22:43:00,71.0,67.0,-100.00,SSW,205,1.0,3.0,86,0.00,,,-99.99,,2013-06-30 02:43:00,
2013-06-29 22:53:00,70.0,67.0,-100.00,South,190,1.0,2.0,88,0.00,,,-99.99,,2013-06-30 02:53:00,
2013-06-29 23:02:00,71.0,67.0,-100.00,WSW,245,2.0,4.0,88,0.00,,,-99.99,,2013-06-30 03:02:00,
2013-06-29 23:12:00,71.0,67.0,-100.00,SW,230,2.0,4.0,89,0.00,,,-99.99,,2013-06-30 03:12:00,